createdAt,value
2022-12-25T00:01:35.140Z,98156.00
2022-12-25T00:04:02.938Z,98158.00
2022-12-25T00:06:30.711Z,98156.00
2022-12-25T00:08:58.363Z,98155.00
2022-12-25T00:11:26.127Z,98155.00
2022-12-25T00:13:53.858Z,98161.00
2022-12-25T00:16:23.732Z,98155.00
2022-12-25T00:18:53.165Z,98159.00
2022-12-25T00:21:21.612Z,98156.00
2022-12-25T00:23:53.811Z,98156.00
2022-12-25T00:26:21.644Z,98156.00
2022-12-25T00:28:49.349Z,98156.00
2022-12-25T00:31:19.294Z,98144.00
2022-12-25T00:33:48.498Z,98140.00
2022-12-25T00:36:20.222Z,98148.00
2022-12-25T00:38:48.503Z,98145.00
2022-12-25T00:41:18.261Z,98146.00
2022-12-25T00:43:46.065Z,98147.00
2022-12-25T00:46:14.332Z,98154.00
2022-12-25T00:48:45.190Z,98150.00
2022-12-25T00:51:13.170Z,98151.00
2022-12-25T00:53:42.462Z,98149.00
2022-12-25T00:56:11.480Z,98146.00
2022-12-25T00:58:39.128Z,98147.00
2022-12-25T01:01:06.923Z,98150.00
2022-12-25T01:03:34.678Z,98153.00
2022-12-25T01:06:04.830Z,98156.00
2022-12-25T01:08:35.567Z,98165.00
2022-12-25T01:11:05.619Z,98167.00
2022-12-25T01:13:35.693Z,98175.00
2022-12-25T01:16:06.936Z,98176.00
2022-12-25T01:18:35.167Z,98179.00
2022-12-25T01:21:07.129Z,98176.00
2022-12-25T01:23:34.839Z,98175.00
2022-12-25T01:26:06.371Z,98180.00
2022-12-25T01:28:34.294Z,98172.00
2022-12-25T01:31:01.978Z,98171.00
2022-12-25T01:33:29.949Z,98169.00
2022-12-25T01:35:58.611Z,98166.00
2022-12-25T01:38:26.517Z,98172.00
2022-12-25T01:40:54.224Z,98171.00
2022-12-25T01:43:26.779Z,98159.00
2022-12-25T01:45:54.662Z,98152.00
2022-12-25T01:48:26.460Z,98160.00
2022-12-25T01:50:56.743Z,98161.00
2022-12-25T01:53:25.494Z,98166.00
2022-12-25T01:55:58.646Z,98164.00
2022-12-25T01:58:28.017Z,98160.00
2022-12-25T02:00:55.903Z,98164.00
2022-12-25T02:03:23.771Z,98169.00
2022-12-25T02:05:52.041Z,98171.00
2022-12-25T02:08:21.495Z,98168.00
2022-12-25T02:10:49.249Z,98176.00
2022-12-25T02:13:20.022Z,98175.00
2022-12-25T02:16:01.429Z,98171.00
2022-12-25T02:18:37.235Z,98175.00
2022-12-25T02:21:30.288Z,98184.00
2022-12-25T02:24:40.308Z,98178.00
2022-12-25T02:27:22.778Z,98172.00
2022-12-25T02:29:58.730Z,98170.00
2022-12-25T02:32:31.459Z,98177.00
2022-12-25T02:35:02.789Z,98177.00
2022-12-25T02:37:35.356Z,98179.00
2022-12-25T02:40:09.379Z,98183.00
2022-12-25T02:43:01.824Z,98183.00
2022-12-25T02:45:54.411Z,98177.00
2022-12-25T02:48:42.469Z,98177.00
2022-12-25T02:51:32.073Z,98180.00
2022-12-25T02:54:20.228Z,98179.00
2022-12-25T02:57:07.569Z,98174.00
2022-12-25T02:59:56.168Z,98165.00
2022-12-25T03:02:43.886Z,98167.00
2022-12-25T03:05:33.362Z,98171.00
2022-12-25T03:08:05.567Z,98169.00
2022-12-25T03:10:51.362Z,98154.00
2022-12-25T03:13:21.291Z,98158.00
2022-12-25T03:16:08.021Z,98150.00
2022-12-25T03:18:37.210Z,98145.00
2022-12-25T03:21:23.014Z,98151.00
2022-12-25T03:24:11.408Z,98138.00
2022-12-25T03:26:57.273Z,98137.00
2022-12-25T03:29:44.099Z,98136.00
2022-12-25T03:32:20.209Z,98127.00
2022-12-25T03:35:16.799Z,98132.00
2022-12-25T03:38:13.128Z,98136.00
2022-12-25T03:41:09.767Z,98134.00
2022-12-25T03:44:16.521Z,98129.00
2022-12-25T03:47:06.191Z,98125.00
2022-12-25T03:49:59.724Z,98108.00
2022-12-25T03:52:47.459Z,98110.00
2022-12-25T03:55:34.068Z,98108.00
2022-12-25T03:58:19.183Z,98114.00
2022-12-25T04:01:04.423Z,98110.00
2022-12-25T04:03:49.769Z,98103.00
2022-12-25T04:06:35.303Z,98094.00
2022-12-25T04:09:22.316Z,98097.00
2022-12-25T04:12:07.454Z,98095.00
2022-12-25T04:14:54.729Z,98101.00
2022-12-25T04:17:39.913Z,98100.00
2022-12-25T04:20:26.558Z,98108.00
2022-12-25T04:23:11.773Z,98111.00
2022-12-25T04:25:58.301Z,98111.00
2022-12-25T04:28:43.391Z,98115.00
2022-12-25T04:31:28.561Z,98114.00
2022-12-25T04:34:14.103Z,98132.00
2022-12-25T04:36:41.769Z,98125.00
2022-12-25T04:39:10.498Z,98122.00
2022-12-25T04:41:39.507Z,98122.00
2022-12-25T04:44:07.173Z,98133.00
2022-12-25T04:46:34.896Z,98141.00
2022-12-25T04:49:02.570Z,98153.00
2022-12-25T04:51:30.224Z,98152.00
2022-12-25T04:53:57.902Z,98149.00
2022-12-25T04:56:25.569Z,98148.00
2022-12-25T04:58:54.555Z,98146.00
2022-12-25T05:01:22.319Z,98141.00
2022-12-25T05:03:50.057Z,98135.00
2022-12-25T05:06:18.281Z,98127.00
2022-12-25T05:08:45.971Z,98136.00
2022-12-25T05:11:16.059Z,98130.00
2022-12-25T05:13:44.292Z,98118.00
2022-12-25T05:16:16.507Z,98128.00
2022-12-25T05:18:44.668Z,98136.00
2022-12-25T05:21:12.877Z,98134.00
2022-12-25T05:23:48.286Z,98128.00
2022-12-25T05:26:16.932Z,98138.00
2022-12-25T05:28:44.628Z,98132.00
2022-12-25T05:31:12.535Z,98128.00
2022-12-25T05:33:41.616Z,98121.00
2022-12-25T05:36:11.576Z,98128.00
2022-12-25T05:38:39.677Z,98129.00
2022-12-25T05:41:07.405Z,98111.00
2022-12-25T05:43:35.048Z,98110.00
2022-12-25T05:46:06.802Z,98113.00
2022-12-25T05:48:35.603Z,98100.00
2022-12-25T05:51:07.490Z,98094.00
2022-12-25T05:53:35.947Z,98095.00
2022-12-25T05:56:05.752Z,98097.00
2022-12-25T05:58:35.067Z,98099.00
2022-12-25T06:01:03.494Z,98101.00
2022-12-25T06:03:31.552Z,98112.00
2022-12-25T06:05:59.320Z,98105.00
2022-12-25T06:08:28.360Z,98099.00
2022-12-25T06:10:56.028Z,98102.00
2022-12-25T06:13:23.703Z,98103.00
2022-12-25T06:15:51.357Z,98108.00
2022-12-25T06:18:19.033Z,98112.00
2022-12-25T06:20:46.746Z,98109.00
2022-12-25T06:23:14.478Z,98109.00
2022-12-25T06:25:43.555Z,98110.00
2022-12-25T06:28:11.210Z,98112.00
2022-12-25T06:30:38.871Z,98102.00
2022-12-25T06:33:06.544Z,98104.00
2022-12-25T06:35:34.189Z,98101.00
2022-12-25T06:38:01.834Z,98098.00
2022-12-25T06:40:29.912Z,98096.00
2022-12-25T06:42:58.913Z,98095.00
2022-12-25T06:45:26.652Z,98094.00
2022-12-25T06:47:54.393Z,98107.00
2022-12-25T06:50:22.118Z,98114.00
2022-12-25T06:52:49.713Z,98119.00
2022-12-25T06:55:17.633Z,98119.00
2022-12-25T06:57:45.305Z,98119.00
2022-12-25T07:00:15.442Z,98126.00
2022-12-25T07:02:48.220Z,98126.00
2022-12-25T07:05:15.973Z,98127.00
2022-12-25T07:07:43.608Z,98122.00
2022-12-25T07:10:12.018Z,98127.00
2022-12-25T07:12:39.685Z,98122.00
2022-12-25T07:15:08.843Z,98123.00
2022-12-25T07:17:37.826Z,98122.00
2022-12-25T07:20:06.947Z,98126.00
2022-12-25T07:22:34.604Z,98128.00
2022-12-25T07:25:02.246Z,98126.00
2022-12-25T07:27:29.891Z,98126.00
2022-12-25T07:29:57.672Z,98138.00
2022-12-25T07:32:25.353Z,98135.00
2022-12-25T07:34:54.361Z,98132.00
2022-12-25T07:37:21.985Z,98133.00
2022-12-25T07:39:49.663Z,98141.00
2022-12-25T07:42:21.829Z,98133.00
2022-12-25T07:44:52.740Z,98135.00
2022-12-25T07:47:20.355Z,98125.00
2022-12-25T07:49:48.001Z,98126.00
2022-12-25T07:52:16.992Z,98110.00
2022-12-25T07:54:44.631Z,98106.00
2022-12-25T07:57:12.321Z,98100.00
2022-12-25T07:59:39.947Z,98095.00
2022-12-25T08:02:07.914Z,98102.00
2022-12-25T08:04:35.827Z,98101.00
2022-12-25T08:07:03.540Z,98103.00
2022-12-25T08:09:32.571Z,98112.00
2022-12-25T08:12:00.288Z,98116.00
2022-12-25T08:14:27.991Z,98110.00
2022-12-25T08:16:55.639Z,98115.00
2022-12-25T08:19:23.572Z,98114.00
2022-12-25T08:21:51.243Z,98107.00
2022-12-25T08:24:19.191Z,98107.00
2022-12-25T08:26:48.225Z,98095.00
2022-12-25T08:29:16.063Z,98088.00
2022-12-25T08:31:46.609Z,98085.00
2022-12-25T08:34:14.739Z,98083.00
2022-12-25T08:36:44.122Z,98072.00
2022-12-25T08:39:11.804Z,98079.00
2022-12-25T08:41:39.463Z,98078.00
2022-12-25T08:44:08.733Z,98081.00
2022-12-25T08:46:36.818Z,98085.00
2022-12-25T08:49:04.572Z,98095.00
2022-12-25T08:51:32.488Z,98111.00
2022-12-25T08:54:01.316Z,98119.00
2022-12-25T08:56:29.257Z,98122.00
2022-12-25T08:58:56.951Z,98112.00
2022-12-25T09:01:26.149Z,98098.00
2022-12-25T09:03:54.788Z,98097.00
2022-12-25T09:06:22.468Z,98101.00
2022-12-25T09:08:50.195Z,98094.00
2022-12-25T09:11:19.542Z,98094.00
2022-12-25T09:13:47.789Z,98101.00
2022-12-25T09:16:18.666Z,98087.00
2022-12-25T09:18:48.088Z,98102.00
2022-12-25T09:21:18.048Z,98104.00
2022-12-25T09:23:46.244Z,98116.00
2022-12-25T09:26:15.826Z,98122.00
2022-12-25T09:28:50.768Z,98127.00
2022-12-25T09:31:20.481Z,98127.00
2022-12-25T09:33:49.710Z,98132.00
2022-12-25T09:36:17.411Z,98136.00
2022-12-25T09:38:45.017Z,98129.00
2022-12-25T09:41:18.151Z,98122.00
2022-12-25T09:43:49.862Z,98103.00
2022-12-25T09:46:21.529Z,98109.00
2022-12-25T09:49:00.402Z,98099.00
2022-12-25T09:51:30.344Z,98088.00
2022-12-25T09:54:05.513Z,98075.00
2022-12-25T09:56:34.625Z,98072.00
2022-12-25T09:59:02.278Z,98067.00
2022-12-25T10:01:35.222Z,98063.00
2022-12-25T10:04:23.806Z,98063.00
2022-12-25T10:07:03.151Z,98063.00
2022-12-25T10:09:46.024Z,98048.00
2022-12-25T10:12:35.424Z,98035.00
2022-12-25T10:15:15.826Z,98013.00
2022-12-25T10:17:58.426Z,98006.00
2022-12-25T10:20:36.423Z,97989.00
2022-12-25T10:23:10.964Z,97988.00
2022-12-25T10:25:40.333Z,97986.00
2022-12-25T10:28:14.469Z,97977.00
2022-12-25T10:30:44.657Z,97981.00
2022-12-25T10:33:17.083Z,97979.00
2022-12-25T10:35:46.954Z,97970.00
2022-12-25T10:38:16.874Z,97986.00
2022-12-25T10:40:57.129Z,97988.00
2022-12-25T10:43:30.796Z,97997.00
2022-12-25T10:45:59.973Z,97997.00
2022-12-25T10:48:29.942Z,98006.00
2022-12-25T10:50:58.977Z,98007.00
2022-12-25T10:53:28.926Z,98011.00
2022-12-25T10:56:02.061Z,98016.00
2022-12-25T10:58:30.598Z,98011.00
2022-12-25T11:01:00.507Z,98010.00
2022-12-25T11:03:32.401Z,97995.00
2022-12-25T11:06:02.790Z,97993.00
2022-12-25T11:08:34.635Z,97998.00
2022-12-25T11:11:06.409Z,97990.00
2022-12-25T11:13:37.224Z,97986.00
2022-12-25T11:16:09.344Z,97985.00
2022-12-25T11:18:47.106Z,97977.00
2022-12-25T11:21:23.220Z,97968.00
2022-12-25T11:23:56.671Z,97958.00
2022-12-25T11:26:24.464Z,97964.00
2022-12-25T11:28:54.172Z,97957.00
2022-12-25T11:31:23.877Z,97954.00
2022-12-25T11:33:56.069Z,97950.00
2022-12-25T11:36:30.848Z,97947.00
2022-12-25T11:39:02.453Z,97934.00
2022-12-25T11:41:34.766Z,97932.00
2022-12-25T11:44:05.954Z,97934.00
2022-12-25T11:46:41.268Z,97929.00
2022-12-25T11:49:14.043Z,97920.00
2022-12-25T11:51:46.971Z,97921.00
2022-12-25T11:54:23.481Z,97931.00
2022-12-25T11:56:51.280Z,97929.00
2022-12-25T11:59:24.088Z,97928.00
2022-12-25T12:01:55.695Z,97931.00
2022-12-25T12:04:30.804Z,97928.00
2022-12-25T12:07:07.612Z,97917.00
2022-12-25T12:09:44.458Z,97917.00
2022-12-25T12:12:18.862Z,97919.00
2022-12-25T12:14:52.723Z,97919.00
2022-12-25T12:17:20.912Z,97903.00
2022-12-25T12:19:48.646Z,97907.00
2022-12-25T12:22:21.885Z,97897.00
2022-12-25T12:24:56.936Z,97893.00
2022-12-25T12:27:28.804Z,97892.00
2022-12-25T12:29:59.302Z,97881.00
2022-12-25T12:32:40.494Z,97879.00
2022-12-25T12:35:18.079Z,97873.00
2022-12-25T12:37:51.756Z,97866.00
2022-12-25T12:40:26.652Z,97855.00
2022-12-25T12:42:54.455Z,97868.00
2022-12-25T12:45:26.669Z,97861.00
2022-12-25T12:47:54.880Z,97864.00
2022-12-25T12:50:40.944Z,97858.00
2022-12-25T12:53:31.878Z,97846.00
2022-12-25T12:56:10.935Z,97843.00
2022-12-25T12:58:45.185Z,97836.00
2022-12-25T13:01:31.391Z,97848.00
2022-12-25T13:04:14.788Z,97856.00
2022-12-25T13:06:47.143Z,97850.00
2022-12-25T13:09:31.384Z,97851.00
2022-12-25T13:11:59.515Z,97851.00
2022-12-25T13:14:27.230Z,97855.00
2022-12-25T13:16:55.338Z,97866.00
2022-12-25T13:19:25.842Z,97865.00
2022-12-25T13:21:56.195Z,97856.00
2022-12-25T13:24:26.892Z,97847.00
2022-12-25T13:26:55.499Z,97841.00
2022-12-25T13:29:24.978Z,97837.00
2022-12-25T13:31:52.727Z,97834.00
2022-12-25T13:34:24.271Z,97838.00
2022-12-25T13:36:51.951Z,97837.00
2022-12-25T13:39:19.966Z,97829.00
2022-12-25T13:42:06.376Z,97825.00
2022-12-25T13:44:43.515Z,97815.00
2022-12-25T13:47:26.715Z,97812.00
2022-12-25T13:49:56.052Z,97813.00
2022-12-25T13:52:29.081Z,97814.00
2022-12-25T13:55:01.870Z,97823.00
2022-12-25T13:57:34.690Z,97832.00
2022-12-25T14:00:03.091Z,97826.00
2022-12-25T14:02:33.503Z,97816.00
2022-12-25T14:05:01.246Z,97821.00
2022-12-25T14:07:29.195Z,97821.00
2022-12-25T14:10:00.537Z,97823.00
2022-12-25T14:12:32.822Z,97824.00
2022-12-25T14:15:01.440Z,97817.00
2022-12-25T14:17:29.315Z,97831.00
2022-12-25T14:20:04.068Z,97828.00
2022-12-25T14:22:35.402Z,97827.00
2022-12-25T14:25:03.102Z,97823.00
2022-12-25T14:27:32.128Z,97825.00
2022-12-25T14:30:01.334Z,97827.00
2022-12-25T14:32:31.998Z,97820.00
2022-12-25T14:35:03.380Z,97839.00
2022-12-25T14:37:34.095Z,97843.00
2022-12-25T14:40:03.544Z,97844.00
2022-12-25T14:42:35.391Z,97836.00
2022-12-25T14:45:07.666Z,97830.00
2022-12-25T14:47:54.229Z,97831.00
2022-12-25T14:50:28.271Z,97834.00
2022-12-25T14:52:56.534Z,97831.00
2022-12-25T14:55:26.695Z,97831.00
2022-12-25T14:58:00.646Z,97817.00
2022-12-25T15:00:32.648Z,97796.00
2022-12-25T15:03:01.097Z,97803.00
2022-12-25T15:05:34.589Z,97783.00
2022-12-25T15:08:30.444Z,97791.00
2022-12-25T15:11:01.893Z,97793.00
2022-12-25T15:13:32.524Z,97801.00
2022-12-25T15:16:05.777Z,97813.00
2022-12-25T15:18:39.139Z,97811.00
2022-12-25T15:21:07.141Z,97807.00
2022-12-25T15:23:34.827Z,97803.00
2022-12-25T15:26:02.491Z,97791.00
2022-12-25T15:28:31.467Z,97793.00
2022-12-25T15:30:59.210Z,97799.00
2022-12-25T15:33:26.907Z,97800.00
2022-12-25T15:35:54.528Z,97803.00
2022-12-25T15:38:22.105Z,97806.00
2022-12-25T15:40:49.812Z,97805.00
2022-12-25T15:43:39.862Z,97796.00
2022-12-25T15:46:09.981Z,97810.00
2022-12-25T15:48:37.624Z,97800.00
2022-12-25T15:51:05.417Z,97808.00
2022-12-25T15:53:33.023Z,97810.00
2022-12-25T15:56:00.666Z,97814.00
2022-12-25T15:58:28.278Z,97822.00
2022-12-25T16:00:55.935Z,97823.00
2022-12-25T16:03:24.926Z,97811.00
2022-12-25T16:05:52.552Z,97803.00
2022-12-25T16:08:20.158Z,97803.00
2022-12-25T16:10:47.900Z,97800.00
2022-12-25T16:13:15.558Z,97809.00
2022-12-25T16:15:43.320Z,97806.00
2022-12-25T16:18:11.655Z,97810.00
2022-12-25T16:20:40.650Z,97808.00
2022-12-25T16:23:08.218Z,97811.00
2022-12-25T16:25:35.818Z,97805.00
2022-12-25T16:28:03.711Z,97806.00
2022-12-25T16:30:31.561Z,97804.00
2022-12-25T16:32:59.215Z,97797.00
2022-12-25T16:35:26.844Z,97789.00
2022-12-25T16:37:55.916Z,97786.00
2022-12-25T16:40:23.532Z,97770.00
2022-12-25T16:42:51.284Z,97779.00
2022-12-25T16:45:18.900Z,97780.00
2022-12-25T16:47:46.530Z,97784.00
2022-12-25T16:50:14.137Z,97788.00
2022-12-25T16:52:41.855Z,97777.00
2022-12-25T16:55:11.441Z,97777.00
2022-12-25T16:57:39.084Z,97783.00
2022-12-25T17:00:09.445Z,97792.00
2022-12-25T17:02:37.224Z,97801.00
2022-12-25T17:05:05.366Z,97798.00
2022-12-25T17:07:32.996Z,97804.00
2022-12-25T17:10:00.648Z,97804.00
2022-12-25T17:12:29.731Z,97800.00
2022-12-25T17:14:57.435Z,97793.00
2022-12-25T17:17:25.086Z,97802.00
2022-12-25T17:19:52.685Z,97792.00
2022-12-25T17:22:20.302Z,97784.00
2022-12-25T17:24:47.948Z,97773.00
2022-12-25T17:27:15.669Z,97765.00
2022-12-25T17:29:45.108Z,97765.00
2022-12-25T17:32:13.772Z,97765.00
2022-12-25T17:34:41.393Z,97767.00
2022-12-25T17:37:08.999Z,97767.00
2022-12-25T17:39:36.626Z,97770.00
2022-12-25T17:42:04.572Z,97768.00
2022-12-25T17:44:32.173Z,97759.00
2022-12-25T17:47:01.226Z,97770.00
2022-12-25T17:49:28.912Z,97771.00
2022-12-25T17:51:56.726Z,97774.00
2022-12-25T17:54:24.353Z,97779.00
2022-12-25T17:56:51.985Z,97784.00
2022-12-25T17:59:20.473Z,97784.00
2022-12-25T18:01:49.178Z,97779.00
2022-12-25T18:04:18.538Z,97772.00
2022-12-25T18:06:46.394Z,97769.00
2022-12-25T18:09:14.255Z,97760.00
2022-12-25T18:11:43.669Z,97753.00
2022-12-25T18:14:13.903Z,97760.00
2022-12-25T18:16:44.126Z,97753.00
2022-12-25T18:19:12.377Z,97715.00
2022-12-25T18:21:41.371Z,97718.00
2022-12-25T18:24:09.750Z,97753.00
2022-12-25T18:26:39.047Z,97767.00
2022-12-25T18:29:07.005Z,97761.00
2022-12-25T18:31:34.771Z,97755.00
2022-12-25T18:34:02.492Z,97769.00
2022-12-25T18:36:30.940Z,97770.00
2022-12-25T18:39:00.121Z,97772.00
2022-12-25T18:41:30.257Z,97762.00
2022-12-25T18:43:58.295Z,97761.00
2022-12-25T18:46:27.910Z,97769.00
2022-12-25T18:48:57.102Z,97772.00
2022-12-25T18:51:27.530Z,97783.00
2022-12-25T18:54:01.556Z,97794.00
2022-12-25T18:56:29.240Z,97793.00
2022-12-25T18:58:56.848Z,97785.00
2022-12-25T19:01:26.225Z,97798.00
2022-12-25T19:04:00.240Z,97793.00
2022-12-25T19:06:33.206Z,97783.00
2022-12-25T19:09:09.248Z,97771.00
2022-12-25T19:11:42.087Z,97772.00
2022-12-25T19:14:13.613Z,97758.00
2022-12-25T19:16:41.336Z,97757.00
2022-12-25T19:19:09.044Z,97753.00
2022-12-25T19:21:36.675Z,97750.00
2022-12-25T19:24:06.625Z,97750.00
2022-12-25T19:26:35.826Z,97745.00
2022-12-25T19:29:03.575Z,97746.00
2022-12-25T19:31:31.495Z,97735.00
2022-12-25T19:33:59.165Z,97738.00
2022-12-25T19:36:26.765Z,97737.00
2022-12-25T19:38:54.711Z,97722.00
2022-12-25T19:41:23.670Z,97718.00
2022-12-25T19:43:52.178Z,97728.00
2022-12-25T19:46:22.273Z,97726.00
2022-12-25T19:48:50.038Z,97733.00
2022-12-25T19:51:19.044Z,97733.00
2022-12-25T19:53:47.901Z,97748.00
2022-12-25T19:56:15.577Z,97753.00
2022-12-25T19:58:44.636Z,97766.00
2022-12-25T20:01:15.271Z,97768.00
2022-12-25T20:03:46.480Z,97765.00
2022-12-25T20:06:18.883Z,97767.00
2022-12-25T20:08:46.891Z,97766.00
2022-12-25T20:11:14.567Z,97769.00
2022-12-25T20:13:42.208Z,97780.00
2022-12-25T20:16:11.782Z,97790.00
2022-12-25T20:18:40.195Z,97797.00
2022-12-25T20:21:09.314Z,97795.00
2022-12-25T20:23:37.007Z,97800.00
2022-12-25T20:26:05.745Z,97805.00
2022-12-25T20:28:35.169Z,97810.00
2022-12-25T20:31:07.431Z,97812.00
2022-12-25T20:33:37.657Z,97815.00
2022-12-25T20:36:06.922Z,97821.00
2022-12-25T20:38:35.174Z,97804.00
2022-12-25T20:43:53.509Z,97809.00
2022-12-25T20:46:21.148Z,97813.00
2022-12-25T20:48:50.222Z,97811.00
2022-12-25T20:51:19.886Z,97813.00
2022-12-25T20:53:47.548Z,97810.00
2022-12-25T20:56:17.320Z,97807.00
2022-12-25T20:58:45.251Z,97807.00
2022-12-25T21:01:15.253Z,97803.00
2022-12-25T21:03:43.267Z,97800.00
2022-12-25T21:06:12.943Z,97804.00
2022-12-25T21:08:41.337Z,97804.00
2022-12-25T21:11:09.614Z,97811.00
2022-12-25T21:13:40.189Z,97816.00
2022-12-25T21:16:10.616Z,97812.00
2022-12-25T21:18:38.764Z,97804.00
2022-12-25T21:21:07.736Z,97807.00
2022-12-25T21:23:38.401Z,97806.00
2022-12-25T21:26:15.030Z,97807.00
2022-12-25T21:28:42.673Z,97806.00
2022-12-25T21:31:11.117Z,97807.00
2022-12-25T21:33:53.372Z,97806.00
2022-12-25T21:36:24.614Z,97796.00
2022-12-25T21:38:58.581Z,97796.00
2022-12-25T21:41:27.334Z,97796.00
2022-12-25T21:43:56.069Z,97795.00
2022-12-25T21:46:24.431Z,97804.00
2022-12-25T21:48:52.918Z,97801.00
2022-12-25T21:51:41.225Z,97802.00
2022-12-25T21:54:10.869Z,97793.00
2022-12-25T21:56:44.539Z,97798.00
2022-12-25T21:59:15.716Z,97798.00
2022-12-25T22:01:44.675Z,97800.00
2022-12-25T22:04:13.129Z,97795.00
2022-12-25T22:06:58.519Z,97789.00
2022-12-25T22:09:27.535Z,97806.00
2022-12-25T22:12:12.848Z,97813.00
2022-12-25T22:14:57.529Z,97821.00
2022-12-25T22:17:44.457Z,97836.00
2022-12-25T22:20:14.903Z,97842.00
2022-12-25T22:22:43.000Z,97845.00
2022-12-25T22:25:12.914Z,97844.00
2022-12-25T22:27:41.716Z,97846.00
2022-12-25T22:30:12.025Z,97858.00
2022-12-25T22:32:39.918Z,97858.00
2022-12-25T22:35:08.379Z,97847.00
2022-12-25T22:37:36.801Z,97853.00
2022-12-25T22:40:04.949Z,97849.00
2022-12-25T22:42:33.972Z,97851.00
2022-12-25T22:45:01.657Z,97848.00
2022-12-25T22:47:29.271Z,97861.00
2022-12-25T22:49:56.908Z,97863.00
2022-12-25T22:52:24.809Z,97868.00
2022-12-25T22:54:52.527Z,97870.00
2022-12-25T22:57:20.450Z,97857.00
2022-12-25T22:59:49.405Z,97860.00
2022-12-25T23:02:17.227Z,97862.00
2022-12-25T23:04:47.132Z,97865.00
2022-12-25T23:07:15.688Z,97873.00
2022-12-25T23:09:44.008Z,97859.00
2022-12-25T23:12:32.643Z,97857.00
2022-12-25T23:15:00.660Z,97856.00
2022-12-25T23:17:57.313Z,97860.00
2022-12-25T23:20:42.387Z,97866.00
2022-12-25T23:23:31.726Z,97869.00
2022-12-25T23:26:08.582Z,97874.00
2022-12-25T23:28:54.286Z,97873.00
2022-12-25T23:31:26.443Z,97865.00
2022-12-25T23:33:54.140Z,97866.00
2022-12-25T23:36:22.067Z,97875.00
2022-12-25T23:38:50.032Z,97866.00
2022-12-25T23:41:17.619Z,97869.00
2022-12-25T23:43:45.220Z,97878.00
2022-12-25T23:46:12.937Z,97875.00
2022-12-25T23:48:42.004Z,97881.00
2022-12-25T23:51:09.677Z,97876.00
2022-12-25T23:53:37.653Z,97886.00
2022-12-25T23:56:06.724Z,97887.00
2022-12-25T23:58:34.455Z,97887.00
